Time;durP1;ratioP1;P1;durP2;ratioP2;P2;SDS_P1;SDS_P2;PMS_P1;PMS_P2;Temp;Humidity;BMP_temperature;BMP_pressure;BME280_temperature;BME280_humidity;BME280_pressure;Samples;Min_cycle;Max_cycle;Signal;HPM_P1;HPM_P2
2022/03/18 00:01:02;;;;;;;6.85;3.65;;;;;;;2.19;100.00;102904.06;5238091;28;20032;-82
2022/03/18 00:03:32;;;;;;;6.60;4.47;;;;;;;2.03;100.00;102909.50;5256111;28;20512;-80
2022/03/18 00:06:02;;;;;;;8.50;5.03;;;;;;;2.11;100.00;102918.38;5238118;28;20062;-81
2022/03/18 00:08:33;;;;;;;12.82;5.70;;;;;;;2.06;100.00;102910.50;5239966;28;20032;-80
2022/03/18 00:11:03;;;;;;;13.07;6.20;;;;;;;2.15;100.00;102913.41;5258456;28;20099;-79
2022/03/18 00:13:33;;;;;;;14.77;6.38;;;;;;;2.19;100.00;102922.13;5248385;28;20028;-79
2022/03/18 00:16:04;;;;;;;11.30;5.85;;;;;;;2.26;100.00;102914.66;5254892;28;20055;-81
2022/03/18 00:18:34;;;;;;;9.75;5.68;;;;;;;2.27;100.00;102920.69;5238566;28;20039;-81
2022/03/18 00:21:07;;;;;;;9.35;5.88;;;;;;;2.24;100.00;102929.22;5247144;28;20456;-79
2022/03/18 00:23:37;;;;;;;9.73;5.70;;;;;;;2.31;100.00;102922.56;5271327;28;20600;-80
2022/03/18 00:26:07;;;;;;;7.28;5.35;;;;;;;2.36;100.00;102921.03;5256108;28;20025;-80
2022/03/18 00:28:39;;;;;;;9.27;5.00;;;;;;;2.26;100.00;102921.50;5256831;28;20381;-80
2022/03/18 00:31:09;;;;;;;7.30;4.88;;;;;;;2.30;100.00;102925.97;5256719;28;20031;-82
2022/03/18 00:33:39;;;;;;;7.75;5.13;;;;;;;2.09;100.00;102926.09;5235741;28;20057;-80
2022/03/18 00:36:10;;;;;;;11.55;6.07;;;;;;;2.29;100.00;102929.34;5259428;28;20020;-79
2022/03/18 00:38:40;;;;;;;12.05;5.35;;;;;;;2.38;100.00;102927.09;5264890;28;20099;-80
2022/03/18 00:41:10;;;;;;;9.57;5.50;;;;;;;1.99;100.00;102928.28;5256408;28;20055;-83
2022/03/18 00:43:41;;;;;;;7.50;4.88;;;;;;;2.09;100.00;102938.09;5245535;28;20028;-79
2022/03/18 00:46:11;;;;;;;9.02;5.60;;;;;;;2.02;100.00;102933.53;5253418;28;20020;-82
2022/03/18 00:54:20;;;;;;;12.80;5.32;;;;;;;1.81;100.00;102936.19;5253073;28;20119;-80
2022/03/18 00:56:50;;;;;;;8.35;4.78;;;;;;;1.63;100.00;102931.16;5258250;28;20107;-81
2022/03/18 00:59:20;;;;;;;8.45;5.47;;;;;;;1.72;100.00;102937.56;5254786;28;20421;-81
2022/03/18 01:01:52;;;;;;;9.30;5.75;;;;;;;1.69;100.00;102942.59;5240683;28;20024;-80
2022/03/18 01:04:24;;;;;;;7.88;5.20;;;;;;;1.50;100.00;102939.25;5236505;28;20096;-79
2022/03/18 01:06:56;;;;;;;9.07;5.90;;;;;;;1.51;100.00;102941.91;5235867;28;20016;-79
2022/03/18 01:09:26;;;;;;;12.63;6.40;;;;;;;1.44;100.00;102952.75;5252554;28;20050;-80
2022/03/18 01:11:57;;;;;;;10.75;6.93;;;;;;;1.60;100.00;102942.22;5238621;28;20622;-82
2022/03/18 01:14:27;;;;;;;10.88;7.35;;;;;;;1.69;100.00;102947.75;5254002;28;20082;-81
2022/03/18 01:16:57;;;;;;;13.95;8.20;;;;;;;1.62;100.00;102944.88;5238377;28;20024;-82
2022/03/18 01:19:28;;;;;;;22.05;8.55;;;;;;;1.83;100.00;102949.16;5235596;28;20519;-82
2022/03/18 01:21:58;;;;;;;16.00;7.40;;;;;;;1.86;100.00;102959.56;5253823;28;20408;-77
2022/03/18 01:24:28;;;;;;;19.63;6.95;;;;;;;1.57;100.00;102957.56;5233210;28;20016;-80
2022/03/18 01:26:59;;;;;;;13.25;6.70;;;;;;;1.62;100.00;102961.25;5252858;28;20031;-81
2022/03/18 01:29:29;;;;;;;12.77;6.93;;;;;;;1.70;100.00;102964.06;5235062;28;20060;-80
2022/03/18 01:32:00;;;;;;;10.07;6.95;;;;;;;1.79;100.00;102975.66;5233825;28;20024;-81
2022/03/18 01:34:30;;;;;;;11.80;6.30;;;;;;;1.75;100.00;102983.19;5234555;28;20115;-79
2022/03/18 01:37:01;;;;;;;10.57;6.15;;;;;;;1.48;100.00;102983.00;5239631;28;20115;-80
2022/03/18 01:39:31;;;;;;;9.38;6.40;;;;;;;1.54;100.00;102983.22;5238850;28;20016;-80
2022/03/18 01:42:01;;;;;;;9.45;5.65;;;;;;;1.58;100.00;102974.78;5253684;28;20044;-80
2022/03/18 01:44:39;;;;;;;11.25;6.43;;;;;;;1.49;100.00;102992.50;5259443;28;20077;-80
2022/03/18 01:47:11;;;;;;;10.77;6.78;;;;;;;1.44;100.00;102983.69;5253986;28;20024;-80
2022/03/18 01:49:42;;;;;;;24.85;6.70;;;;;;;1.50;100.00;102985.63;5253946;28;20021;-80
2022/03/18 01:52:12;;;;;;;9.93;6.55;;;;;;;1.54;100.00;102978.06;5234345;28;20029;-81
2022/03/18 01:54:49;;;;;;;20.42;7.15;;;;;;;1.54;100.00;102972.91;5233656;28;20030;-82
2022/03/18 01:57:22;;;;;;;11.18;6.20;;;;;;;1.47;100.00;102991.56;5254479;28;20193;-82
2022/03/18 01:59:52;;;;;;;9.07;6.60;;;;;;;1.68;100.00;102986.34;5255923;28;20711;-81
2022/03/18 02:02:24;;;;;;;9.68;6.00;;;;;;;1.54;100.00;102997.81;5249164;28;20084;-80
2022/03/18 02:04:56;;;;;;;18.67;6.57;;;;;;;1.36;100.00;102997.06;5249098;28;20032;-81
2022/03/18 02:07:26;;;;;;;13.73;5.55;;;;;;;1.30;100.00;103008.03;5255849;28;20492;-80
2022/03/18 02:09:57;;;;;;;10.50;6.25;;;;;;;1.42;100.00;103011.06;5253722;28;20199;-80
2022/03/18 02:12:27;;;;;;;8.40;5.75;;;;;;;1.40;100.00;103020.44;5260437;28;20114;-79
2022/03/18 02:14:57;;;;;;;8.75;5.60;;;;;;;1.19;100.00;103017.00;5256664;28;20021;-80
2022/03/18 02:17:28;;;;;;;8.73;6.05;;;;;;;0.95;100.00;103018.56;5244743;28;20028;-83
2022/03/18 02:19:58;;;;;;;9.18;6.18;;;;;;;1.08;100.00;103017.38;5256657;28;20020;-82
2022/03/18 02:22:39;;;;;;;9.40;6.50;;;;;;;1.17;100.00;103025.47;5252537;28;20028;-81
2022/03/18 02:25:12;;;;;;;9.30;5.97;;;;;;;1.19;100.00;103018.69;5236539;28;20031;-81
2022/03/18 02:28:01;;;;;;;10.32;6.50;;;;;;;1.16;100.00;103019.47;5257238;28;20016;-80
2022/03/18 02:30:34;;;;;;;15.48;6.75;;;;;;;1.32;100.00;103027.00;5251931;28;20028;-80
2022/03/18 02:33:04;;;;;;;15.55;7.00;;;;;;;1.30;100.00;103023.47;5230809;28;20025;-80
2022/03/18 02:35:36;;;;;;;14.27;7.15;;;;;;;1.31;100.00;103027.81;5253977;28;20031;-80
2022/03/18 02:38:06;;;;;;;12.32;6.50;;;;;;;1.30;100.00;103023.47;5232689;28;20035;-80
2022/03/18 02:40:37;;;;;;;11.82;6.10;;;;;;;1.06;100.00;103037.03;5254534;28;20025;-80
2022/03/18 02:43:07;;;;;;;9.07;5.80;;;;;;;1.26;100.00;103028.44;5238579;28;20046;-80
2022/03/18 02:45:37;;;;;;;9.40;6.10;;;;;;;1.03;100.00;103042.06;5249802;22;20041;-80
2022/03/18 02:48:08;;;;;;;9.15;5.97;;;;;;;1.03;100.00;103048.06;5246887;28;20035;-79
2022/03/18 02:50:38;;;;;;;9.50;6.30;;;;;;;0.81;100.00;103050.56;5250751;28;20024;-79
2022/03/18 02:53:09;;;;;;;11.63;7.05;;;;;;;0.86;100.00;103043.91;5248116;28;20076;-79
2022/03/18 02:55:39;;;;;;;12.52;7.38;;;;;;;0.87;100.00;103048.22;5250979;28;20028;-79
2022/03/18 02:58:09;;;;;;;9.90;6.53;;;;;;;0.77;100.00;103058.06;5252210;28;20024;-79
2022/03/18 03:00:40;;;;;;;9.88;6.32;;;;;;;0.66;100.00;103054.13;5230954;28;20275;-77
2022/03/18 03:03:10;;;;;;;11.25;7.28;;;;;;;0.59;100.00;103063.28;5245244;28;20166;-77
2022/03/18 03:08:31;;;;;;;10.80;7.20;;;;;;;0.30;100.00;103061.13;5252505;28;20081;-77
2022/03/18 03:11:01;;;;;;;9.52;6.43;;;;;;;0.41;100.00;103064.16;5248588;28;20055;-77
2022/03/18 03:13:32;;;;;;;10.30;6.78;;;;;;;0.58;100.00;103065.78;5252874;28;20062;-77
2022/03/18 03:16:03;;;;;;;13.38;6.95;;;;;;;0.66;100.00;103073.03;5244831;28;20040;-77
2022/03/18 03:18:34;;;;;;;10.82;7.25;;;;;;;0.71;100.00;103079.25;5256256;28;20019;-77
2022/03/18 03:21:04;;;;;;;15.00;7.72;;;;;;;0.69;100.00;103080.03;5252118;28;20525;-77
2022/03/18 03:23:36;;;;;;;11.93;7.20;;;;;;;0.87;100.00;103081.69;5256469;28;20024;-77
2022/03/18 03:26:07;;;;;;;12.43;7.45;;;;;;;0.50;100.00;103088.59;5256238;28;20106;-77
2022/03/18 03:28:37;;;;;;;12.60;7.07;;;;;;;0.61;100.00;103094.22;5253340;28;20116;-77
2022/03/18 03:31:08;;;;;;;17.35;8.27;;;;;;;0.80;100.00;103101.94;5250465;28;20344;-77
2022/03/18 03:33:38;;;;;;;13.70;7.50;;;;;;;0.78;100.00;103095.84;5251714;28;20023;-77
2022/03/18 03:36:08;;;;;;;12.95;6.97;;;;;;;0.70;100.00;103107.53;5253449;28;20020;-77
2022/03/18 03:38:39;;;;;;;18.50;6.93;;;;;;;0.78;100.00;103103.56;5251765;28;20021;-77
2022/03/18 03:41:09;;;;;;;12.55;7.35;;;;;;;0.78;100.00;103114.75;5255074;28;20032;-77
2022/03/18 03:43:39;;;;;;;12.27;7.28;;;;;;;0.73;100.00;103123.94;5252842;28;20508;-77
2022/03/18 03:46:09;;;;;;;12.30;7.30;;;;;;;0.81;100.00;103119.16;5254440;28;20030;-77
2022/03/18 03:48:40;;;;;;;11.02;6.90;;;;;;;0.78;100.00;103129.31;5252657;28;20046;-77
2022/03/18 03:51:10;;;;;;;12.80;7.03;;;;;;;0.92;100.00;103131.66;5252757;28;20448;-77
2022/03/18 03:53:40;;;;;;;13.35;6.95;;;;;;;0.55;100.00;103130.84;5253895;28;20106;-77
2022/03/18 03:56:10;;;;;;;12.05;6.53;;;;;;;0.40;100.00;103129.28;5253100;28;20077;-77
2022/03/18 03:58:41;;;;;;;14.15;6.80;;;;;;;0.23;100.00;103128.47;5254839;28;20058;-76
2022/03/18 04:01:11;;;;;;;11.80;7.22;;;;;;;0.41;100.00;103129.31;5248269;28;20486;-77
2022/03/18 04:03:42;;;;;;;12.45;7.20;;;;;;;0.35;100.00;103144.47;5250771;28;20035;-77
2022/03/18 04:06:13;;;;;;;11.85;7.30;;;;;;;0.24;100.00;103137.94;5252425;28;20108;-76
2022/03/18 04:08:44;;;;;;;13.13;7.80;;;;;;;0.43;100.00;103148.31;5253831;28;20082;-76
2022/03/18 04:11:14;;;;;;;12.27;7.47;;;;;;;0.36;100.00;103156.53;5253031;28;20024;-77
2022/03/18 04:13:44;;;;;;;14.60;7.28;;;;;;;0.24;100.00;103163.66;5253869;28;20032;-76
2022/03/18 04:16:15;;;;;;;19.27;7.10;;;;;;;0.32;100.00;103174.31;5253096;28;20031;-77
2022/03/18 04:18:45;;;;;;;10.27;6.70;;;;;;;0.22;100.00;103160.13;5253801;28;20020;-76
2022/03/18 04:21:16;;;;;;;11.27;6.93;;;;;;;0.45;100.00;103172.41;5252704;28;20025;-77
2022/03/18 04:23:46;;;;;;;12.40;7.05;;;;;;;0.57;100.00;103175.53;5253580;28;20027;-76
2022/03/18 04:26:16;;;;;;;11.30;7.00;;;;;;;0.53;100.00;103176.19;5254188;28;20081;-76
2022/03/18 04:28:47;;;;;;;11.57;7.05;;;;;;;0.25;100.00;103182.56;5252411;28;20024;-77
2022/03/18 04:31:17;;;;;;;9.90;6.63;;;;;;;0.33;100.00;103181.22;5248400;28;20028;-76
2022/03/18 04:33:47;;;;;;;13.55;7.70;;;;;;;0.22;100.00;103188.41;5250428;28;20103;-77
2022/03/18 04:36:17;;;;;;;12.15;8.13;;;;;;;0.40;100.00;103189.28;5253219;28;20035;-77
2022/03/18 04:38:48;;;;;;;13.77;8.13;;;;;;;0.44;100.00;103195.47;5235038;28;20024;-77
2022/03/18 04:41:18;;;;;;;17.10;8.32;;;;;;;0.38;100.00;103201.19;5253032;28;20036;-77
2022/03/18 04:43:49;;;;;;;17.00;8.48;;;;;;;0.38;100.00;103211.47;5252683;28;20026;-77
2022/03/18 04:46:20;;;;;;;15.85;7.63;;;;;;;0.45;100.00;103211.00;5252990;28;20035;-76
2022/03/18 04:48:50;;;;;;;19.25;7.95;;;;;;;0.55;100.00;103213.16;5255142;28;20085;-77
2022/03/18 04:51:20;;;;;;;14.13;7.97;;;;;;;0.83;100.00;103216.22;5251797;28;20043;-76
2022/03/18 04:53:51;;;;;;;16.40;7.40;;;;;;;0.70;100.00;103220.75;5252226;28;20016;-77
2022/03/18 04:59:10;;;;;;;11.85;6.97;;;;;;;0.85;100.00;103222.31;5248635;28;20569;-77
2022/03/18 05:01:41;;;;;;;13.43;6.65;;;;;;;0.84;100.00;103220.53;5245888;28;20024;-77
2022/03/18 05:04:12;;;;;;;12.02;7.05;;;;;;;0.68;100.00;103238.66;5248720;28;20044;-76
2022/03/18 05:06:42;;;;;;;11.20;7.40;;;;;;;0.61;100.00;103233.16;5252737;28;20028;-76
2022/03/18 05:09:13;;;;;;;12.07;7.20;;;;;;;0.52;100.00;103240.47;5251245;28;20032;-77
2022/03/18 05:11:43;;;;;;;14.20;7.25;;;;;;;0.51;100.00;103239.56;5252417;28;20023;-78
2022/03/18 05:14:14;;;;;;;14.02;7.78;;;;;;;0.56;100.00;103238.06;5252574;28;20651;-78
2022/03/18 05:16:44;;;;;;;11.30;7.10;;;;;;;0.74;100.00;103233.78;5235015;28;20024;-78
2022/03/18 05:19:15;;;;;;;12.60;7.20;;;;;;;0.76;100.00;103239.88;5253035;28;20012;-78
2022/03/18 05:21:45;;;;;;;12.90;7.28;;;;;;;0.83;100.00;103243.63;5252812;28;20020;-78
2022/03/18 05:24:16;;;;;;;11.73;6.70;;;;;;;0.82;100.00;103241.88;5252886;28;20032;-78
2022/03/18 05:26:46;;;;;;;10.75;7.22;;;;;;;0.68;100.00;103243.81;5252650;28;20027;-78
2022/03/18 05:29:17;;;;;;;12.30;7.03;;;;;;;0.70;100.00;103239.63;5252766;28;20067;-78
2022/03/18 05:31:47;;;;;;;11.82;7.15;;;;;;;0.70;100.00;103247.34;5246974;28;20024;-78
2022/03/18 05:34:18;;;;;;;11.40;6.15;;;;;;;0.68;100.00;103248.94;5249134;28;20027;-78
2022/03/18 05:36:48;;;;;;;14.88;6.70;;;;;;;0.46;100.00;103250.44;5235374;28;20028;-77
2022/03/18 05:39:18;;;;;;;12.40;6.38;;;;;;;0.11;100.00;103253.88;5254128;28;20490;-78
2022/03/18 05:41:48;;;;;;;10.65;6.38;;;;;;;0.33;100.00;103261.81;5253028;28;20384;-78
2022/03/18 05:44:19;;;;;;;10.95;6.53;;;;;;;0.25;100.00;103265.69;5254993;28;20059;-78
2022/03/18 05:46:49;;;;;;;10.95;6.40;;;;;;;0.72;100.00;103268.00;5252403;28;20055;-78
2022/03/18 05:49:19;;;;;;;10.18;6.65;;;;;;;0.54;100.00;103269.72;5247834;28;20428;-78
2022/03/18 05:51:50;;;;;;;12.75;6.70;;;;;;;0.57;100.00;103272.41;5249130;28;20020;-78
2022/03/18 05:54:20;;;;;;;10.77;6.93;;;;;;;0.41;100.00;103278.50;5242579;28;20601;-78
2022/03/18 05:56:53;;;;;;;10.73;6.47;;;;;;;0.47;100.00;103283.06;5250280;28;20067;-78
2022/03/18 05:59:25;;;;;;;11.20;7.03;;;;;;;0.70;100.00;103278.22;5251600;28;20074;-77
2022/03/18 06:02:00;;;;;;;11.90;7.03;;;;;;;0.70;100.00;103285.94;5247274;28;20059;-78
2022/03/18 06:04:31;;;;;;;12.65;6.97;;;;;;;0.42;100.00;103295.69;5250185;28;20066;-77
2022/03/18 06:07:04;;;;;;;11.13;6.30;;;;;;;0.32;100.00;103306.34;5254350;28;20035;-77
2022/03/18 06:12:24;;;;;;;8.95;6.05;;;;;;;0.41;100.00;103293.06;5242877;28;20082;-78
2022/03/18 06:14:54;;;;;;;15.02;6.53;;;;;;;0.71;100.00;103302.25;5250173;28;20036;-78
2022/03/18 06:17:24;;;;;;;9.63;6.22;;;;;;;0.84;100.00;103302.91;5252651;28;20028;-78
2022/03/18 06:19:55;;;;;;;10.35;6.45;;;;;;;0.76;100.00;103304.22;5247751;28;20024;-78
2022/03/18 06:22:25;;;;;;;8.98;6.18;;;;;;;0.89;100.00;103304.00;5246864;28;20048;-79
2022/03/18 06:24:56;;;;;;;8.32;5.65;;;;;;;0.81;100.00;103307.03;5242481;28;20033;-79
2022/03/18 06:27:26;;;;;;;9.02;5.50;;;;;;;0.38;100.00;103319.50;5244543;28;20397;-79
2022/03/18 06:29:56;;;;;;;9.48;5.63;;;;;;;0.43;100.00;103323.22;5246131;28;20041;-79
2022/03/18 06:32:26;;;;;;;13.02;6.57;;;;;;;0.57;100.00;103326.44;5222614;28;20619;-79
2022/03/18 06:34:57;;;;;;;11.90;6.68;;;;;;;0.36;100.00;103328.84;5245981;28;20111;-78
2022/03/18 06:37:27;;;;;;;10.05;6.75;;;;;;;0.54;100.00;103332.31;5253364;28;20031;-78
2022/03/18 06:39:57;;;;;;;12.35;6.57;;;;;;;0.72;100.00;103340.91;5250236;28;20541;-79
2022/03/18 06:42:27;;;;;;;11.18;6.75;;;;;;;0.84;100.00;103348.34;5253293;28;20311;-79
2022/03/18 06:44:57;;;;;;;15.27;6.05;;;;;;;0.71;100.00;103344.31;5249401;28;20025;-79
2022/03/18 06:47:28;;;;;;;8.85;5.65;;;;;;;0.71;100.00;103346.00;5253220;28;20024;-79
2022/03/18 06:49:58;;;;;;;8.52;5.55;;;;;;;0.82;100.00;103353.44;5232018;28;20032;-79
2022/03/18 06:52:28;;;;;;;8.73;5.82;;;;;;;0.88;100.00;103356.28;5250438;28;20054;-79
2022/03/18 06:54:59;;;;;;;9.45;5.90;;;;;;;0.92;100.00;103358.19;5254142;28;20024;-79
2022/03/18 06:57:29;;;;;;;9.40;5.88;;;;;;;0.57;100.00;103365.03;5257626;28;20481;-79
2022/03/18 06:59:59;;;;;;;9.90;6.07;;;;;;;0.80;100.00;103370.50;5253370;28;20112;-79
2022/03/18 07:02:29;;;;;;;11.45;6.43;;;;;;;0.53;100.00;103383.72;5248447;28;20020;-79
2022/03/18 07:05:00;;;;;;;10.65;6.18;;;;;;;0.73;100.00;103381.28;5255037;28;20024;-79
2022/03/18 07:07:30;;;;;;;10.52;6.65;;;;;;;1.03;100.00;103377.63;5257841;28;20051;-79
2022/03/18 07:10:00;;;;;;;13.95;6.60;;;;;;;1.01;100.00;103383.50;5256225;28;20116;-79
2022/03/18 07:12:31;;;;;;;13.63;6.57;;;;;;;1.00;100.00;103382.63;5253303;28;20103;-79
2022/03/18 07:15:01;;;;;;;9.20;6.03;;;;;;;1.19;100.00;103382.69;5257150;28;20453;-79
2022/03/18 07:20:21;;;;;;;11.63;5.93;;;;;;;1.77;100.00;103376.78;5254327;28;20039;-79
2022/03/18 07:23:01;;;;;;;9.32;6.00;;;;;;;1.81;100.00;103389.91;5253837;28;20040;-79
2022/03/18 07:25:32;;;;;;;8.05;5.22;;;;;;;2.06;100.00;103394.44;5257139;28;20017;-80
2022/03/18 07:28:04;;;;;;;8.32;5.40;;;;;;;2.84;100.00;103387.50;5248567;28;20040;-80
2022/03/18 07:30:39;;;;;;;6.68;4.28;;;;;;;3.67;100.00;103384.75;5251858;28;20028;-80
2022/03/18 07:33:10;;;;;;;5.75;3.88;;;;;;;3.99;100.00;103385.09;5249047;28;20024;-80
2022/03/18 07:35:42;;;;;;;6.53;3.72;;;;;;;5.13;95.78;103372.59;5255643;28;20028;-80
2022/03/18 07:38:13;;;;;;;4.75;3.50;;;;;;;5.60;89.87;103378.38;5254143;28;20560;-80
2022/03/18 07:40:43;;;;;;;3.83;2.97;;;;;;;5.17;89.20;103384.81;5254559;28;20047;-80
2022/03/18 07:43:14;;;;;;;8.30;3.53;;;;;;;5.54;89.33;103383.41;5254900;28;20455;-80
2022/03/18 07:45:44;;;;;;;4.13;3.17;;;;;;;6.40;89.11;103381.56;5256905;28;20042;-80
2022/03/18 07:48:14;;;;;;;4.38;3.03;;;;;;;5.93;88.18;103394.97;5255745;28;20028;-81
2022/03/18 07:50:44;;;;;;;4.00;2.70;;;;;;;6.20;90.60;103395.72;5251669;28;20030;-80
2022/03/18 07:53:15;;;;;;;4.13;3.13;;;;;;;6.62;88.42;103402.06;5254141;28;20077;-81
2022/03/18 07:55:45;;;;;;;6.32;3.35;;;;;;;5.29;92.86;103405.97;5256048;28;20278;-81
2022/03/18 07:58:16;;;;;;;5.85;3.40;;;;;;;4.77;97.72;103407.72;5255606;28;20027;-80
2022/03/18 08:00:46;;;;;;;6.95;3.05;;;;;;;4.69;100.00;103407.44;5252765;28;20044;-80
2022/03/18 08:03:16;;;;;;;4.80;3.20;;;;;;;4.68;100.00;103392.75;5246948;28;20047;-80
2022/03/18 08:05:47;;;;;;;5.60;3.40;;;;;;;4.82;100.00;103406.13;5247997;28;20036;-80
2022/03/18 08:08:17;;;;;;;7.35;3.70;;;;;;;5.56;100.00;103402.47;5250277;28;20061;-80
2022/03/18 08:10:48;;;;;;;7.63;3.70;;;;;;;5.37;97.44;103399.28;5246338;28;20047;-80
2022/03/18 08:13:20;;;;;;;5.55;3.80;;;;;;;5.84;100.00;103405.06;5253264;28;20064;-80
2022/03/18 08:15:50;;;;;;;8.07;3.97;;;;;;;6.88;96.48;103406.16;5253625;28;20386;-80
2022/03/18 08:18:21;;;;;;;9.88;3.75;;;;;;;6.89;93.46;103397.53;5250791;28;20039;-81
2022/03/18 08:20:52;;;;;;;7.07;4.05;;;;;;;6.81;92.64;103405.16;5251072;28;20035;-80
2022/03/18 08:23:23;;;;;;;6.60;4.30;;;;;;;6.75;96.02;103414.53;5254495;28;20095;-80
2022/03/18 08:25:53;;;;;;;6.80;4.00;;;;;;;6.57;96.61;103411.47;5254523;28;20969;-80
2022/03/18 08:28:23;;;;;;;7.28;4.47;;;;;;;7.04;95.99;103406.59;5252047;28;20102;-80
2022/03/18 08:30:54;;;;;;;7.00;4.75;;;;;;;9.04;93.16;103402.03;5235524;28;20028;-81
2022/03/18 08:33:24;;;;;;;9.30;4.15;;;;;;;10.40;83.58;103395.16;5261674;28;20469;-81
2022/03/18 08:35:55;;;;;;;9.65;4.40;;;;;;;10.25;82.92;103401.09;5250493;28;20024;-81
2022/03/18 08:38:26;;;;;;;8.18;4.07;;;;;;;9.81;88.67;103409.25;5255357;28;20028;-81
2022/03/18 08:40:56;;;;;;;10.27;4.55;;;;;;;10.85;79.95;103404.28;5245911;28;20027;-81
2022/03/18 08:43:26;;;;;;;7.03;4.10;;;;;;;11.53;78.11;103414.41;5229534;28;20473;-81
2022/03/18 08:45:57;;;;;;;7.75;3.95;;;;;;;13.48;71.40;103404.31;5286648;22;20756;-87
2022/03/18 08:48:28;;;;;;;8.20;4.00;;;;;;;14.57;68.83;103392.47;5257572;28;20039;-83
2022/03/18 08:50:58;;;;;;;7.50;3.92;;;;;;;14.63;69.13;103397.66;5275428;28;20020;-84
2022/03/18 08:53:29;;;;;;;7.38;3.90;;;;;;;13.64;72.57;103398.16;5281609;28;20024;-85
2022/03/18 08:56:00;;;;;;;9.30;4.35;;;;;;;12.83;78.60;103398.22;5272536;28;20121;-84
2022/03/18 08:58:30;;;;;;;8.50;4.93;;;;;;;11.23;83.62;103415.94;5236512;28;20215;-84
2022/03/18 09:01:00;;;;;;;7.90;4.32;;;;;;;12.41;78.65;103407.78;5242092;28;20092;-82
2022/03/18 09:03:31;;;;;;;9.15;5.18;;;;;;;12.99;73.95;103410.50;5247066;28;20152;-81
2022/03/18 09:06:03;;;;;;;10.05;5.05;;;;;;;11.05;85.42;103424.53;5240677;28;20515;-83
2022/03/18 09:08:33;;;;;;;13.07;4.20;;;;;;;12.31;75.92;103411.28;5233572;28;20051;-79
2022/03/18 09:11:04;;;;;;;12.23;4.10;;;;;;;11.33;83.04;103420.38;5240382;28;20088;-83
2022/03/18 09:13:35;;;;;;;12.52;6.60;;;;;;;13.12;77.26;103401.75;5237729;28;20059;-81
2022/03/18 09:16:05;;;;;;;13.23;4.53;;;;;;;14.49;71.66;103403.03;5239686;28;20555;-83
2022/03/18 09:18:36;;;;;;;12.57;3.47;;;;;;;15.23;66.56;103398.91;5238893;28;20043;-79
2022/03/18 09:21:07;;;;;;;9.23;3.50;;;;;;;11.63;77.81;103416.22;5259668;28;20435;-80
2022/03/18 09:23:37;;;;;;;11.43;3.80;;;;;;;10.64;83.81;103427.66;5238969;28;20285;-84
2022/03/18 09:26:08;;;;;;;15.65;4.47;;;;;;;9.73;89.08;103429.16;5243346;28;20020;-83
2022/03/18 09:28:39;;;;;;;17.08;7.50;;;;;;;9.56;92.70;103441.09;5249238;28;20039;-85
2022/03/18 09:31:09;;;;;;;13.63;3.70;;;;;;;9.67;88.63;103436.91;5233642;28;20024;-85
2022/03/18 09:33:42;;;;;;;11.38;4.00;;;;;;;10.56;82.38;103441.50;5238618;28;20596;-83
2022/03/18 09:36:18;;;;;;;13.60;3.28;;;;;;;10.14;85.17;103449.75;5232105;28;20048;-82
2022/03/18 09:38:49;;;;;;;9.57;3.08;;;;;;;10.54;81.45;103449.34;5250609;28;20023;-82
2022/03/18 09:41:19;;;;;;;10.77;1.98;;;;;;;10.37;75.88;103461.34;5248578;28;20024;-82
2022/03/18 09:43:50;;;;;;;11.30;2.97;;;;;;;10.72;77.28;103462.59;5267809;28;20031;-83
2022/03/18 09:46:22;;;;;;;10.77;2.92;;;;;;;9.30;83.14;103473.78;5236661;28;21345;-83
2022/03/18 09:48:53;;;;;;;11.70;2.47;;;;;;;10.11;79.38;103488.03;5261044;28;20056;-82
2022/03/18 09:51:23;;;;;;;6.75;2.25;;;;;;;9.89;78.58;103486.88;5240040;28;20051;-81
2022/03/18 09:53:53;;;;;;;7.47;2.25;;;;;;;10.30;78.93;103476.94;5256376;28;20030;-83
2022/03/18 09:56:24;;;;;;;7.45;2.03;;;;;;;10.44;79.00;103480.59;5240484;28;20024;-83
2022/03/18 09:58:54;;;;;;;6.00;1.67;;;;;;;10.64;79.69;103468.63;5238466;28;20016;-83
2022/03/18 10:01:24;;;;;;;7.22;2.20;;;;;;;10.48;79.24;103479.81;5242245;28;20513;-82
2022/03/18 10:04:02;;;;;;;9.30;2.25;;;;;;;10.34;78.90;103484.84;5260307;28;20028;-82
2022/03/18 10:06:34;;;;;;;13.90;2.42;;;;;;;10.31;81.66;103482.19;5240377;28;20035;-82
2022/03/18 10:09:05;;;;;;;12.40;2.88;;;;;;;9.94;83.48;103477.34;5241082;28;20033;-81
2022/03/18 10:11:37;;;;;;;7.43;2.08;;;;;;;10.24;83.34;103472.53;5258039;28;20066;-82
2022/03/18 10:14:13;;;;;;;10.68;2.47;;;;;;;10.31;84.82;103479.59;5256551;28;20024;-83
2022/03/18 10:16:48;;;;;;;10.68;2.50;;;;;;;10.51;79.90;103487.66;5240462;28;20063;-80
2022/03/18 10:19:21;;;;;;;7.97;2.95;;;;;;;10.27;79.23;103484.75;5242113;28;20050;-83
2022/03/18 10:21:59;;;;;;;9.65;2.65;;;;;;;9.58;84.87;103492.50;5239442;28;20054;-83
2022/03/18 10:24:37;;;;;;;12.73;2.90;;;;;;;9.32;84.76;103490.34;5260267;28;20028;-83
2022/03/18 10:27:14;;;;;;;11.02;2.80;;;;;;;9.10;84.68;103503.00;5241503;28;20028;-81
2022/03/18 10:29:49;;;;;;;8.30;2.30;;;;;;;9.51;82.32;103498.47;5243176;28;20027;-80
2022/03/18 10:32:22;;;;;;;9.68;2.70;;;;;;;9.57;82.63;103495.97;5243544;28;20063;-83
2022/03/18 10:37:47;;;;;;;14.80;2.90;;;;;;;9.26;86.16;103506.78;5260548;28;20349;-82
2022/03/18 10:40:33;;;;;;;9.23;2.97;;;;;;;9.28;84.98;103506.81;5243271;28;20061;-83
2022/03/18 10:43:06;;;;;;;11.30;2.90;;;;;;;9.21;86.73;103515.38;5265121;28;20043;-83
2022/03/18 10:45:36;;;;;;;9.65;2.90;;;;;;;9.77;85.68;103510.19;5241885;28;20032;-80
2022/03/18 10:48:15;;;;;;;12.27;3.05;;;;;;;10.16;89.73;103512.50;5244089;28;20121;-81
2022/03/18 10:51:00;;;;;;;9.57;3.22;;;;;;;10.13;87.13;103509.88;5260858;28;20111;-82
2022/03/18 10:53:32;;;;;;;10.43;3.47;;;;;;;9.95;85.14;103513.06;5259588;28;20025;-81
2022/03/18 10:56:04;;;;;;;11.30;3.00;;;;;;;9.68;85.25;103506.56;5259305;28;20025;-81
2022/03/18 10:58:36;;;;;;;15.82;3.72;;;;;;;9.78;84.70;103505.81;5244939;28;20015;-83
2022/03/18 11:01:06;;;;;;;14.45;3.70;;;;;;;9.69;84.57;103505.72;5243458;28;20028;-82
2022/03/18 11:03:36;;;;;;;10.05;3.15;;;;;;;9.99;84.64;103509.63;5247117;28;20065;-82
2022/03/18 11:06:07;;;;;;;14.70;3.53;;;;;;;10.07;88.54;103499.31;5237362;28;20119;-82
2022/03/18 11:08:45;;;;;;;10.18;3.00;;;;;;;9.95;86.07;103499.09;5244162;28;20054;-80
2022/03/18 11:11:20;;;;;;;7.85;2.60;;;;;;;10.14;84.81;103495.94;5242741;28;20024;-80
2022/03/18 11:14:00;;;;;;;9.43;3.03;;;;;;;10.43;83.42;103505.00;5242079;28;20032;-83
2022/03/18 11:16:34;;;;;;;11.73;3.42;;;;;;;10.37;83.83;103497.09;5258660;28;20030;-82
2022/03/18 11:19:13;;;;;;;10.00;2.60;;;;;;;10.17;83.41;103489.00;5240797;28;20027;-82
2022/03/18 11:21:45;;;;;;;10.93;2.83;;;;;;;10.25;82.18;103491.69;5242543;28;20032;-82
2022/03/18 11:24:22;;;;;;;9.20;2.40;;;;;;;10.02;84.70;103501.00;5242623;28;20028;-82
2022/03/18 11:26:54;;;;;;;8.25;2.70;;;;;;;10.17;82.23;103496.84;5243918;28;20024;-83
2022/03/18 11:29:26;;;;;;;8.43;2.10;;;;;;;10.18;82.48;103492.50;5240430;28;20698;-83
2022/03/18 11:32:12;;;;;;;8.98;2.13;;;;;;;10.05;81.25;103486.25;5261848;28;20028;-81
2022/03/18 11:34:56;;;;;;;11.02;2.45;;;;;;;9.78;83.49;103501.50;5257090;28;20029;-82
2022/03/18 11:37:28;;;;;;;11.57;2.70;;;;;;;10.12;84.11;103492.41;5256835;28;20851;-81
2022/03/18 11:40:17;;;;;;;10.75;3.45;;;;;;;10.19;81.71;103491.63;5258008;28;20032;-83
2022/03/18 11:42:49;;;;;;;9.95;2.55;;;;;;;10.24;82.08;103497.78;5264875;28;20028;-81
2022/03/18 11:45:34;;;;;;;8.73;2.40;;;;;;;9.98;80.90;103483.50;5259760;28;20032;-82
2022/03/18 11:48:36;;;;;;;11.77;2.25;;;;;;;10.15;82.27;103477.66;5239028;28;20035;-82
2022/03/18 11:51:30;;;;;;;13.90;2.42;;;;;;;10.42;83.65;103475.38;5257361;28;20081;-82
2022/03/18 11:54:03;;;;;;;9.73;2.33;;;;;;;10.47;81.31;103471.06;5257277;28;20024;-80
2022/03/18 11:56:41;;;;;;;7.82;2.13;;;;;;;10.47;80.52;103468.44;5256886;28;20021;-81
2022/03/18 11:59:23;;;;;;;7.35;1.85;;;;;;;10.54;80.95;103464.16;5240544;28;20020;-80
2022/03/18 12:02:01;;;;;;;8.77;2.08;;;;;;;10.48;80.57;103466.72;5237683;28;20035;-83